sensor_id;sensor_type;location;lat;lon;timestamp;P1;durP1;ratioP1;P2;durP2;ratioP2
76210;SDS011;65003;49.518;11.280;2023-07-24T00:00:34;9.00;;;4.63;;
76210;SDS011;65003;49.518;11.280;2023-07-24T00:03:01;7.13;;;4.80;;
76210;SDS011;65003;49.518;11.280;2023-07-24T00:05:27;7.03;;;4.73;;
76210;SDS011;65003;49.518;11.280;2023-07-24T00:07:54;5.93;;;4.80;;
76210;SDS011;65003;49.518;11.280;2023-07-24T00:10:20;9.97;;;5.50;;
76210;SDS011;65003;49.518;11.280;2023-07-24T00:12:48;9.40;;;5.57;;
76210;SDS011;65003;49.518;11.280;2023-07-24T00:15:14;10.53;;;5.20;;
76210;SDS011;65003;49.518;11.280;2023-07-24T00:17:41;9.47;;;5.13;;
76210;SDS011;65003;49.518;11.280;2023-07-24T00:20:08;7.63;;;5.10;;
76210;SDS011;65003;49.518;11.280;2023-07-24T00:22:35;7.80;;;4.73;;
76210;SDS011;65003;49.518;11.280;2023-07-24T00:25:01;9.33;;;5.40;;
76210;SDS011;65003;49.518;11.280;2023-07-24T00:27:28;9.10;;;4.87;;
76210;SDS011;65003;49.518;11.280;2023-07-24T00:29:55;7.50;;;5.30;;
76210;SDS011;65003;49.518;11.280;2023-07-24T00:32:22;8.50;;;4.90;;
76210;SDS011;65003;49.518;11.280;2023-07-24T00:34:48;8.70;;;5.17;;
76210;SDS011;65003;49.518;11.280;2023-07-24T00:37:15;10.10;;;5.17;;
76210;SDS011;65003;49.518;11.280;2023-07-24T00:39:42;8.60;;;5.70;;
76210;SDS011;65003;49.518;11.280;2023-07-24T00:42:09;9.07;;;5.17;;
76210;SDS011;65003;49.518;11.280;2023-07-24T00:44:36;7.57;;;5.47;;
76210;SDS011;65003;49.518;11.280;2023-07-24T00:47:02;8.57;;;5.70;;
76210;SDS011;65003;49.518;11.280;2023-07-24T00:49:29;7.67;;;5.30;;
76210;SDS011;65003;49.518;11.280;2023-07-24T00:51:56;9.10;;;5.13;;
76210;SDS011;65003;49.518;11.280;2023-07-24T00:54:22;7.77;;;6.00;;
76210;SDS011;65003;49.518;11.280;2023-07-24T00:56:49;8.33;;;5.60;;
76210;SDS011;65003;49.518;11.280;2023-07-24T00:59:15;10.33;;;5.90;;
76210;SDS011;65003;49.518;11.280;2023-07-24T01:01:42;7.97;;;5.33;;
76210;SDS011;65003;49.518;11.280;2023-07-24T01:04:09;10.40;;;5.30;;
76210;SDS011;65003;49.518;11.280;2023-07-24T01:06:35;9.57;;;5.87;;
76210;SDS011;65003;49.518;11.280;2023-07-24T01:09:02;8.73;;;6.00;;
76210;SDS011;65003;49.518;11.280;2023-07-24T01:11:33;7.87;;;6.10;;
76210;SDS011;65003;49.518;11.280;2023-07-24T01:14:04;8.30;;;6.63;;
76210;SDS011;65003;49.518;11.280;2023-07-24T01:16:40;7.97;;;5.53;;
76210;SDS011;65003;49.518;11.280;2023-07-24T01:19:11;9.20;;;5.87;;
76210;SDS011;65003;49.518;11.280;2023-07-24T01:21:44;9.93;;;6.03;;
76210;SDS011;65003;49.518;11.280;2023-07-24T01:24:13;8.93;;;6.33;;
76210;SDS011;65003;49.518;11.280;2023-07-24T01:26:37;9.60;;;6.70;;
76210;SDS011;65003;49.518;11.280;2023-07-24T01:29:03;8.87;;;5.77;;
76210;SDS011;65003;49.518;11.280;2023-07-24T01:31:30;9.93;;;6.00;;
76210;SDS011;65003;49.518;11.280;2023-07-24T01:33:57;9.43;;;6.27;;
76210;SDS011;65003;49.518;11.280;2023-07-24T01:36:24;9.57;;;5.73;;
76210;SDS011;65003;49.518;11.280;2023-07-24T01:38:51;13.87;;;7.00;;
76210;SDS011;65003;49.518;11.280;2023-07-24T01:41:18;9.37;;;5.80;;
76210;SDS011;65003;49.518;11.280;2023-07-24T01:43:44;9.17;;;5.93;;
76210;SDS011;65003;49.518;11.280;2023-07-24T01:46:11;9.23;;;5.47;;
76210;SDS011;65003;49.518;11.280;2023-07-24T01:48:37;9.33;;;6.17;;
76210;SDS011;65003;49.518;11.280;2023-07-24T01:51:04;9.97;;;6.33;;
76210;SDS011;65003;49.518;11.280;2023-07-24T01:53:31;11.37;;;6.93;;
76210;SDS011;65003;49.518;11.280;2023-07-24T01:55:58;12.73;;;6.60;;
76210;SDS011;65003;49.518;11.280;2023-07-24T01:58:25;11.50;;;6.43;;
76210;SDS011;65003;49.518;11.280;2023-07-24T02:00:54;9.93;;;6.20;;
76210;SDS011;65003;49.518;11.280;2023-07-24T02:03:18;8.73;;;6.27;;
76210;SDS011;65003;49.518;11.280;2023-07-24T02:05:48;10.33;;;6.83;;
76210;SDS011;65003;49.518;11.280;2023-07-24T02:08:11;10.67;;;6.40;;
76210;SDS011;65003;49.518;11.280;2023-07-24T02:10:38;9.70;;;6.60;;
76210;SDS011;65003;49.518;11.280;2023-07-24T02:13:04;8.90;;;5.70;;
76210;SDS011;65003;49.518;11.280;2023-07-24T02:15:31;8.53;;;5.80;;
76210;SDS011;65003;49.518;11.280;2023-07-24T02:17:58;13.30;;;6.30;;
76210;SDS011;65003;49.518;11.280;2023-07-24T02:20:26;9.07;;;6.43;;
76210;SDS011;65003;49.518;11.280;2023-07-24T02:22:52;10.23;;;5.73;;
76210;SDS011;65003;49.518;11.280;2023-07-24T02:25:19;10.80;;;6.17;;
76210;SDS011;65003;49.518;11.280;2023-07-24T02:27:46;10.47;;;6.53;;
76210;SDS011;65003;49.518;11.280;2023-07-24T02:30:12;8.30;;;6.20;;
76210;SDS011;65003;49.518;11.280;2023-07-24T02:32:39;7.63;;;5.83;;
76210;SDS011;65003;49.518;11.280;2023-07-24T02:35:06;10.07;;;6.43;;
76210;SDS011;65003;49.518;11.280;2023-07-24T02:37:33;8.07;;;6.00;;
76210;SDS011;65003;49.518;11.280;2023-07-24T02:39:59;8.40;;;5.77;;
76210;SDS011;65003;49.518;11.280;2023-07-24T02:42:26;9.90;;;6.33;;
76210;SDS011;65003;49.518;11.280;2023-07-24T02:44:53;8.33;;;5.97;;
76210;SDS011;65003;49.518;11.280;2023-07-24T02:47:19;8.80;;;6.10;;
76210;SDS011;65003;49.518;11.280;2023-07-24T02:49:46;9.73;;;6.97;;
76210;SDS011;65003;49.518;11.280;2023-07-24T02:52:12;11.60;;;6.30;;
76210;SDS011;65003;49.518;11.280;2023-07-24T02:54:39;9.27;;;6.17;;
76210;SDS011;65003;49.518;11.280;2023-07-24T02:57:06;11.23;;;6.63;;
76210;SDS011;65003;49.518;11.280;2023-07-24T02:59:33;9.60;;;5.93;;
76210;SDS011;65003;49.518;11.280;2023-07-24T03:02:00;9.10;;;6.27;;
76210;SDS011;65003;49.518;11.280;2023-07-24T03:04:26;9.77;;;6.53;;
76210;SDS011;65003;49.518;11.280;2023-07-24T03:06:53;9.37;;;6.57;;
76210;SDS011;65003;49.518;11.280;2023-07-24T03:09:19;10.43;;;5.90;;
76210;SDS011;65003;49.518;11.280;2023-07-24T03:11:46;8.27;;;6.70;;
76210;SDS011;65003;49.518;11.280;2023-07-24T03:14:13;9.27;;;6.17;;
76210;SDS011;65003;49.518;11.280;2023-07-24T03:16:40;12.17;;;7.00;;
76210;SDS011;65003;49.518;11.280;2023-07-24T03:19:06;10.77;;;7.10;;
76210;SDS011;65003;49.518;11.280;2023-07-24T03:21:33;8.63;;;5.87;;
76210;SDS011;65003;49.518;11.280;2023-07-24T03:23:59;10.73;;;6.50;;
76210;SDS011;65003;49.518;11.280;2023-07-24T03:26:26;10.40;;;6.37;;
76210;SDS011;65003;49.518;11.280;2023-07-24T03:28:53;10.87;;;6.77;;
76210;SDS011;65003;49.518;11.280;2023-07-24T03:31:19;10.50;;;6.73;;
76210;SDS011;65003;49.518;11.280;2023-07-24T03:33:46;9.27;;;6.33;;
76210;SDS011;65003;49.518;11.280;2023-07-24T03:36:12;10.30;;;7.07;;
76210;SDS011;65003;49.518;11.280;2023-07-24T03:38:39;12.17;;;7.43;;
76210;SDS011;65003;49.518;11.280;2023-07-24T03:41:06;10.63;;;6.90;;
76210;SDS011;65003;49.518;11.280;2023-07-24T03:43:32;11.00;;;7.87;;
76210;SDS011;65003;49.518;11.280;2023-07-24T03:45:59;10.60;;;6.97;;
76210;SDS011;65003;49.518;11.280;2023-07-24T03:48:25;10.07;;;7.03;;
76210;SDS011;65003;49.518;11.280;2023-07-24T03:50:57;12.07;;;7.10;;
76210;SDS011;65003;49.518;11.280;2023-07-24T03:53:23;10.83;;;7.13;;
76210;SDS011;65003;49.518;11.280;2023-07-24T03:55:50;9.95;;;7.42;;
76210;SDS011;65003;49.518;11.280;2023-07-24T03:58:17;11.27;;;7.10;;
76210;SDS011;65003;49.518;11.280;2023-07-24T04:00:44;10.73;;;7.30;;
76210;SDS011;65003;49.518;11.280;2023-07-24T04:03:10;8.60;;;7.03;;
76210;SDS011;65003;49.518;11.280;2023-07-24T04:05:37;10.87;;;7.53;;
76210;SDS011;65003;49.518;11.280;2023-07-24T04:08:03;12.17;;;7.27;;
76210;SDS011;65003;49.518;11.280;2023-07-24T04:10:30;11.23;;;7.57;;
76210;SDS011;65003;49.518;11.280;2023-07-24T04:12:57;8.63;;;6.37;;
76210;SDS011;65003;49.518;11.280;2023-07-24T04:15:24;14.20;;;8.30;;
76210;SDS011;65003;49.518;11.280;2023-07-24T04:17:50;10.73;;;7.27;;
76210;SDS011;65003;49.518;11.280;2023-07-24T04:20:17;11.43;;;8.53;;
76210;SDS011;65003;49.518;11.280;2023-07-24T04:22:44;10.13;;;6.47;;
76210;SDS011;65003;49.518;11.280;2023-07-24T04:25:10;10.60;;;7.43;;
76210;SDS011;65003;49.518;11.280;2023-07-24T04:27:37;12.27;;;7.03;;
76210;SDS011;65003;49.518;11.280;2023-07-24T04:30:03;11.03;;;7.07;;
76210;SDS011;65003;49.518;11.280;2023-07-24T04:32:31;9.70;;;7.10;;
76210;SDS011;65003;49.518;11.280;2023-07-24T04:34:57;10.90;;;7.23;;
76210;SDS011;65003;49.518;11.280;2023-07-24T04:37:24;10.77;;;7.30;;
76210;SDS011;65003;49.518;11.280;2023-07-24T04:39:50;11.53;;;7.43;;
76210;SDS011;65003;49.518;11.280;2023-07-24T04:42:18;12.00;;;7.77;;
76210;SDS011;65003;49.518;11.280;2023-07-24T04:44:44;12.40;;;7.80;;
76210;SDS011;65003;49.518;11.280;2023-07-24T04:47:11;12.00;;;7.90;;
76210;SDS011;65003;49.518;11.280;2023-07-24T04:49:37;12.90;;;8.07;;
76210;SDS011;65003;49.518;11.280;2023-07-24T04:52:04;10.90;;;7.67;;
76210;SDS011;65003;49.518;11.280;2023-07-24T04:54:31;9.43;;;6.93;;
76210;SDS011;65003;49.518;11.280;2023-07-24T04:56:58;11.73;;;8.20;;
76210;SDS011;65003;49.518;11.280;2023-07-24T04:59:25;15.20;;;7.77;;
76210;SDS011;65003;49.518;11.280;2023-07-24T05:01:51;11.57;;;7.60;;
76210;SDS011;65003;49.518;11.280;2023-07-24T05:04:18;11.93;;;7.40;;
76210;SDS011;65003;49.518;11.280;2023-07-24T05:06:45;10.57;;;6.97;;
76210;SDS011;65003;49.518;11.280;2023-07-24T05:09:12;9.83;;;7.00;;
76210;SDS011;65003;49.518;11.280;2023-07-24T05:11:39;13.57;;;8.53;;
76210;SDS011;65003;49.518;11.280;2023-07-24T05:14:05;10.13;;;7.37;;
76210;SDS011;65003;49.518;11.280;2023-07-24T05:16:32;9.83;;;6.77;;
76210;SDS011;65003;49.518;11.280;2023-07-24T05:18:59;11.00;;;6.77;;
76210;SDS011;65003;49.518;11.280;2023-07-24T05:21:25;9.63;;;7.17;;
76210;SDS011;65003;49.518;11.280;2023-07-24T05:23:52;14.13;;;9.40;;
76210;SDS011;65003;49.518;11.280;2023-07-24T05:26:18;11.23;;;7.53;;
76210;SDS011;65003;49.518;11.280;2023-07-24T05:28:46;10.27;;;6.80;;
76210;SDS011;65003;49.518;11.280;2023-07-24T05:31:12;10.67;;;6.97;;
76210;SDS011;65003;49.518;11.280;2023-07-24T05:33:40;11.20;;;7.50;;
76210;SDS011;65003;49.518;11.280;2023-07-24T05:36:06;10.00;;;6.90;;
76210;SDS011;65003;49.518;11.280;2023-07-24T05:38:33;12.53;;;7.80;;
76210;SDS011;65003;49.518;11.280;2023-07-24T05:41:02;13.03;;;7.80;;
76210;SDS011;65003;49.518;11.280;2023-07-24T05:43:27;15.97;;;8.07;;
76210;SDS011;65003;49.518;11.280;2023-07-24T05:45:54;14.07;;;8.10;;
76210;SDS011;65003;49.518;11.280;2023-07-24T05:48:21;12.40;;;7.30;;
76210;SDS011;65003;49.518;11.280;2023-07-24T05:50:49;10.53;;;7.67;;
76210;SDS011;65003;49.518;11.280;2023-07-24T05:53:15;11.40;;;6.80;;
76210;SDS011;65003;49.518;11.280;2023-07-24T05:55:42;11.33;;;7.80;;
76210;SDS011;65003;49.518;11.280;2023-07-24T05:58:09;11.57;;;7.03;;
76210;SDS011;65003;49.518;11.280;2023-07-24T06:00:36;12.30;;;7.37;;
76210;SDS011;65003;49.518;11.280;2023-07-24T06:03:03;10.37;;;6.63;;
76210;SDS011;65003;49.518;11.280;2023-07-24T06:05:29;9.13;;;7.40;;
76210;SDS011;65003;49.518;11.280;2023-07-24T06:07:56;10.40;;;6.80;;
76210;SDS011;65003;49.518;11.280;2023-07-24T06:10:22;9.57;;;7.57;;
76210;SDS011;65003;49.518;11.280;2023-07-24T06:12:49;10.13;;;6.87;;
76210;SDS011;65003;49.518;11.280;2023-07-24T06:15:16;12.87;;;6.87;;
76210;SDS011;65003;49.518;11.280;2023-07-24T06:17:42;9.20;;;6.83;;
76210;SDS011;65003;49.518;11.280;2023-07-24T06:20:09;9.33;;;6.97;;
76210;SDS011;65003;49.518;11.280;2023-07-24T06:22:36;8.23;;;6.40;;
76210;SDS011;65003;49.518;11.280;2023-07-24T06:25:02;10.10;;;7.00;;
76210;SDS011;65003;49.518;11.280;2023-07-24T06:27:29;10.50;;;7.67;;
76210;SDS011;65003;49.518;11.280;2023-07-24T06:29:56;11.33;;;6.80;;
76210;SDS011;65003;49.518;11.280;2023-07-24T06:32:22;16.73;;;7.73;;
76210;SDS011;65003;49.518;11.280;2023-07-24T06:34:50;11.27;;;7.53;;
76210;SDS011;65003;49.518;11.280;2023-07-24T06:37:17;10.73;;;7.57;;
76210;SDS011;65003;49.518;11.280;2023-07-24T06:39:44;9.43;;;6.60;;
76210;SDS011;65003;49.518;11.280;2023-07-24T06:42:11;10.53;;;7.17;;
76210;SDS011;65003;49.518;11.280;2023-07-24T06:44:37;14.43;;;7.43;;
76210;SDS011;65003;49.518;11.280;2023-07-24T06:47:05;13.00;;;7.60;;
76210;SDS011;65003;49.518;11.280;2023-07-24T06:49:31;11.43;;;6.87;;
76210;SDS011;65003;49.518;11.280;2023-07-24T06:51:58;10.70;;;8.00;;
76210;SDS011;65003;49.518;11.280;2023-07-24T06:54:25;11.97;;;6.77;;
76210;SDS011;65003;49.518;11.280;2023-07-24T06:56:51;10.43;;;7.43;;
76210;SDS011;65003;49.518;11.280;2023-07-24T06:59:18;12.23;;;7.30;;
76210;SDS011;65003;49.518;11.280;2023-07-24T07:01:46;14.13;;;6.83;;
76210;SDS011;65003;49.518;11.280;2023-07-24T07:04:13;9.03;;;7.07;;
76210;SDS011;65003;49.518;11.280;2023-07-24T07:06:40;11.33;;;7.17;;
76210;SDS011;65003;49.518;11.280;2023-07-24T07:09:06;9.63;;;6.90;;
76210;SDS011;65003;49.518;11.280;2023-07-24T07:11:33;10.03;;;6.20;;
76210;SDS011;65003;49.518;11.280;2023-07-24T07:13:59;11.33;;;7.40;;
76210;SDS011;65003;49.518;11.280;2023-07-24T07:16:26;8.97;;;7.27;;
76210;SDS011;65003;49.518;11.280;2023-07-24T07:18:53;10.03;;;7.07;;
76210;SDS011;65003;49.518;11.280;2023-07-24T07:21:19;8.60;;;6.63;;
76210;SDS011;65003;49.518;11.280;2023-07-24T07:23:46;8.90;;;6.37;;
76210;SDS011;65003;49.518;11.280;2023-07-24T07:26:13;8.63;;;6.97;;
76210;SDS011;65003;49.518;11.280;2023-07-24T07:28:39;9.90;;;6.00;;
76210;SDS011;65003;49.518;11.280;2023-07-24T07:31:06;12.23;;;7.60;;
76210;SDS011;65003;49.518;11.280;2023-07-24T07:33:33;10.03;;;6.43;;
76210;SDS011;65003;49.518;11.280;2023-07-24T07:35:59;8.97;;;7.07;;
76210;SDS011;65003;49.518;11.280;2023-07-24T07:38:26;8.37;;;6.83;;
76210;SDS011;65003;49.518;11.280;2023-07-24T07:40:52;8.47;;;6.10;;
76210;SDS011;65003;49.518;11.280;2023-07-24T07:43:19;9.77;;;7.10;;
76210;SDS011;65003;49.518;11.280;2023-07-24T07:45:46;9.00;;;7.17;;
76210;SDS011;65003;49.518;11.280;2023-07-24T07:48:12;9.10;;;7.17;;
76210;SDS011;65003;49.518;11.280;2023-07-24T07:50:39;9.77;;;6.97;;
76210;SDS011;65003;49.518;11.280;2023-07-24T07:53:05;10.30;;;6.27;;
76210;SDS011;65003;49.518;11.280;2023-07-24T07:55:32;10.23;;;6.73;;
76210;SDS011;65003;49.518;11.280;2023-07-24T07:57:58;8.97;;;6.03;;
76210;SDS011;65003;49.518;11.280;2023-07-24T08:00:26;8.40;;;6.20;;
76210;SDS011;65003;49.518;11.280;2023-07-24T08:02:52;9.43;;;6.80;;
76210;SDS011;65003;49.518;11.280;2023-07-24T08:05:19;10.03;;;7.17;;
76210;SDS011;65003;49.518;11.280;2023-07-24T08:07:46;8.10;;;6.37;;
76210;SDS011;65003;49.518;11.280;2023-07-24T08:10:13;10.27;;;6.87;;
76210;SDS011;65003;49.518;11.280;2023-07-24T08:12:40;8.80;;;6.50;;
76210;SDS011;65003;49.518;11.280;2023-07-24T08:15:06;10.47;;;7.33;;
76210;SDS011;65003;49.518;11.280;2023-07-24T08:17:34;11.50;;;7.83;;
76210;SDS011;65003;49.518;11.280;2023-07-24T08:20:01;13.60;;;7.40;;
76210;SDS011;65003;49.518;11.280;2023-07-24T08:22:28;9.83;;;7.53;;
76210;SDS011;65003;49.518;11.280;2023-07-24T08:24:54;10.73;;;7.40;;
76210;SDS011;65003;49.518;11.280;2023-07-24T08:27:21;9.77;;;7.43;;
76210;SDS011;65003;49.518;11.280;2023-07-24T08:29:50;8.80;;;7.00;;
76210;SDS011;65003;49.518;11.280;2023-07-24T08:32:14;11.87;;;6.87;;
76210;SDS011;65003;49.518;11.280;2023-07-24T08:34:41;10.57;;;7.23;;
76210;SDS011;65003;49.518;11.280;2023-07-24T08:37:07;12.33;;;7.30;;
76210;SDS011;65003;49.518;11.280;2023-07-24T08:39:34;9.77;;;7.53;;
76210;SDS011;65003;49.518;11.280;2023-07-24T08:42:07;12.87;;;7.87;;
76210;SDS011;65003;49.518;11.280;2023-07-24T08:44:27;9.00;;;6.97;;
76210;SDS011;65003;49.518;11.280;2023-07-24T08:46:54;10.63;;;7.67;;
76210;SDS011;65003;49.518;11.280;2023-07-24T08:49:20;11.60;;;6.40;;
76210;SDS011;65003;49.518;11.280;2023-07-24T08:51:47;8.93;;;6.57;;
76210;SDS011;65003;49.518;11.280;2023-07-24T08:54:13;11.77;;;6.83;;
76210;SDS011;65003;49.518;11.280;2023-07-24T08:56:40;10.57;;;6.80;;
76210;SDS011;65003;49.518;11.280;2023-07-24T08:59:07;10.20;;;7.27;;
76210;SDS011;65003;49.518;11.280;2023-07-24T09:01:33;12.53;;;7.60;;
76210;SDS011;65003;49.518;11.280;2023-07-24T09:04:00;10.23;;;7.27;;
76210;SDS011;65003;49.518;11.280;2023-07-24T09:06:26;10.90;;;7.97;;
76210;SDS011;65003;49.518;11.280;2023-07-24T09:08:54;15.37;;;7.67;;
76210;SDS011;65003;49.518;11.280;2023-07-24T09:11:21;11.07;;;7.57;;
76210;SDS011;65003;49.518;11.280;2023-07-24T09:13:48;11.07;;;7.90;;
76210;SDS011;65003;49.518;11.280;2023-07-24T09:16:21;10.27;;;8.03;;
76210;SDS011;65003;49.518;11.280;2023-07-24T09:18:48;9.73;;;7.23;;
76210;SDS011;65003;49.518;11.280;2023-07-24T09:21:14;11.00;;;7.70;;
76210;SDS011;65003;49.518;11.280;2023-07-24T09:23:41;13.07;;;7.93;;
76210;SDS011;65003;49.518;11.280;2023-07-24T09:26:08;11.00;;;7.70;;
76210;SDS011;65003;49.518;11.280;2023-07-24T09:28:34;12.17;;;7.57;;
76210;SDS011;65003;49.518;11.280;2023-07-24T09:31:01;9.90;;;7.53;;
76210;SDS011;65003;49.518;11.280;2023-07-24T09:36:01;11.80;;;7.97;;
76210;SDS011;65003;49.518;11.280;2023-07-24T09:38:28;12.47;;;7.70;;
76210;SDS011;65003;49.518;11.280;2023-07-24T09:40:55;13.60;;;8.07;;
76210;SDS011;65003;49.518;11.280;2023-07-24T09:43:23;14.07;;;8.40;;
76210;SDS011;65003;49.518;11.280;2023-07-24T09:45:49;10.37;;;8.37;;
76210;SDS011;65003;49.518;11.280;2023-07-24T09:48:16;11.07;;;7.63;;
76210;SDS011;65003;49.518;11.280;2023-07-24T09:50:43;14.17;;;8.17;;
76210;SDS011;65003;49.518;11.280;2023-07-24T09:53:17;11.60;;;7.90;;
76210;SDS011;65003;49.518;11.280;2023-07-24T09:55:47;11.80;;;7.77;;
76210;SDS011;65003;49.518;11.280;2023-07-24T09:58:27;11.03;;;7.70;;
76210;SDS011;65003;49.518;11.280;2023-07-24T10:00:54;10.23;;;7.33;;
76210;SDS011;65003;49.518;11.280;2023-07-24T10:03:22;13.07;;;8.50;;
76210;SDS011;65003;49.518;11.280;2023-07-24T10:05:48;12.57;;;8.87;;
76210;SDS011;65003;49.518;11.280;2023-07-24T10:08:17;10.77;;;7.60;;
76210;SDS011;65003;49.518;11.280;2023-07-24T10:10:44;11.53;;;7.80;;
76210;SDS011;65003;49.518;11.280;2023-07-24T10:13:11;11.43;;;7.83;;
76210;SDS011;65003;49.518;11.280;2023-07-24T10:15:38;11.50;;;7.80;;
76210;SDS011;65003;49.518;11.280;2023-07-24T10:18:05;11.50;;;8.00;;
76210;SDS011;65003;49.518;11.280;2023-07-24T10:20:32;11.20;;;7.63;;
76210;SDS011;65003;49.518;11.280;2023-07-24T10:23:01;10.27;;;7.63;;
76210;SDS011;65003;49.518;11.280;2023-07-24T10:25:30;11.37;;;7.70;;
76210;SDS011;65003;49.518;11.280;2023-07-24T10:28:01;12.23;;;8.67;;
76210;SDS011;65003;49.518;11.280;2023-07-24T10:30:32;12.83;;;7.63;;
76210;SDS011;65003;49.518;11.280;2023-07-24T10:33:05;10.60;;;8.50;;
76210;SDS011;65003;49.518;11.280;2023-07-24T10:35:37;10.97;;;7.97;;
76210;SDS011;65003;49.518;11.280;2023-07-24T10:38:03;12.43;;;7.80;;
76210;SDS011;65003;49.518;11.280;2023-07-24T10:40:30;11.97;;;8.30;;
76210;SDS011;65003;49.518;11.280;2023-07-24T10:42:59;11.03;;;7.87;;
76210;SDS011;65003;49.518;11.280;2023-07-24T10:45:49;9.37;;;7.53;;
76210;SDS011;65003;49.518;11.280;2023-07-24T10:48:16;13.57;;;7.13;;
76210;SDS011;65003;49.518;11.280;2023-07-24T10:50:43;13.23;;;8.07;;
76210;SDS011;65003;49.518;11.280;2023-07-24T10:53:09;11.37;;;8.00;;
76210;SDS011;65003;49.518;11.280;2023-07-24T10:55:35;10.93;;;7.90;;
76210;SDS011;65003;49.518;11.280;2023-07-24T10:58:02;11.20;;;8.07;;
76210;SDS011;65003;49.518;11.280;2023-07-24T11:00:28;10.67;;;8.60;;
76210;SDS011;65003;49.518;11.280;2023-07-24T11:02:55;11.07;;;7.13;;
76210;SDS011;65003;49.518;11.280;2023-07-24T11:05:22;12.10;;;8.07;;
76210;SDS011;65003;49.518;11.280;2023-07-24T11:07:48;12.27;;;7.77;;
76210;SDS011;65003;49.518;11.280;2023-07-24T11:10:17;10.70;;;7.37;;
76210;SDS011;65003;49.518;11.280;2023-07-24T11:12:44;9.63;;;7.40;;
76210;SDS011;65003;49.518;11.280;2023-07-24T11:15:11;11.00;;;7.90;;
76210;SDS011;65003;49.518;11.280;2023-07-24T11:17:37;12.97;;;8.30;;
76210;SDS011;65003;49.518;11.280;2023-07-24T11:20:05;11.20;;;8.40;;
76210;SDS011;65003;49.518;11.280;2023-07-24T11:22:32;10.47;;;7.97;;
76210;SDS011;65003;49.518;11.280;2023-07-24T11:24:59;10.33;;;8.13;;
76210;SDS011;65003;49.518;11.280;2023-07-24T11:27:25;10.17;;;7.67;;
76210;SDS011;65003;49.518;11.280;2023-07-24T11:29:52;12.33;;;8.50;;
76210;SDS011;65003;49.518;11.280;2023-07-24T11:32:19;12.83;;;8.10;;
76210;SDS011;65003;49.518;11.280;2023-07-24T11:34:47;14.20;;;7.83;;
76210;SDS011;65003;49.518;11.280;2023-07-24T11:37:15;11.20;;;8.03;;
76210;SDS011;65003;49.518;11.280;2023-07-24T11:39:42;10.37;;;7.73;;
76210;SDS011;65003;49.518;11.280;2023-07-24T11:42:08;10.67;;;8.10;;
76210;SDS011;65003;49.518;11.280;2023-07-24T11:44:35;13.77;;;8.93;;
76210;SDS011;65003;49.518;11.280;2023-07-24T11:47:02;9.43;;;7.53;;
76210;SDS011;65003;49.518;11.280;2023-07-24T11:49:29;10.10;;;7.93;;
76210;SDS011;65003;49.518;11.280;2023-07-24T11:52:04;11.70;;;8.67;;
76210;SDS011;65003;49.518;11.280;2023-07-24T11:54:30;11.63;;;7.80;;
76210;SDS011;65003;49.518;11.280;2023-07-24T11:56:57;9.63;;;6.73;;
76210;SDS011;65003;49.518;11.280;2023-07-24T11:59:23;10.00;;;8.13;;
76210;SDS011;65003;49.518;11.280;2023-07-24T12:01:52;10.96;;;7.66;;
76210;SDS011;65003;49.518;11.280;2023-07-24T12:04:18;11.07;;;8.17;;
76210;SDS011;65003;49.518;11.280;2023-07-24T12:06:45;10.87;;;8.33;;
76210;SDS011;65003;49.518;11.280;2023-07-24T12:09:12;11.47;;;8.53;;
76210;SDS011;65003;49.518;11.280;2023-07-24T12:11:40;11.03;;;7.90;;
76210;SDS011;65003;49.518;11.280;2023-07-24T12:14:05;12.43;;;8.60;;
76210;SDS011;65003;49.518;11.280;2023-07-24T12:16:33;13.87;;;8.67;;
76210;SDS011;65003;49.518;11.280;2023-07-24T12:19:00;11.10;;;7.27;;
76210;SDS011;65003;49.518;11.280;2023-07-24T12:21:27;12.50;;;7.70;;
76210;SDS011;65003;49.518;11.280;2023-07-24T12:23:55;11.37;;;8.10;;
76210;SDS011;65003;49.518;11.280;2023-07-24T12:26:21;10.40;;;6.87;;
76210;SDS011;65003;49.518;11.280;2023-07-24T12:28:48;11.87;;;7.00;;
76210;SDS011;65003;49.518;11.280;2023-07-24T12:31:15;7.80;;;6.20;;
76210;SDS011;65003;49.518;11.280;2023-07-24T12:33:41;8.77;;;5.53;;
76210;SDS011;65003;49.518;11.280;2023-07-24T12:36:08;7.53;;;5.67;;
76210;SDS011;65003;49.518;11.280;2023-07-24T12:38:34;7.20;;;5.70;;
76210;SDS011;65003;49.518;11.280;2023-07-24T12:41:01;7.77;;;5.83;;
76210;SDS011;65003;49.518;11.280;2023-07-24T12:43:28;8.73;;;5.47;;
76210;SDS011;65003;49.518;11.280;2023-07-24T12:45:55;6.47;;;4.90;;
76210;SDS011;65003;49.518;11.280;2023-07-24T12:48:22;5.60;;;4.43;;
76210;SDS011;65003;49.518;11.280;2023-07-24T12:50:48;6.60;;;4.47;;
76210;SDS011;65003;49.518;11.280;2023-07-24T12:53:15;6.47;;;5.00;;
76210;SDS011;65003;49.518;11.280;2023-07-24T12:55:41;5.97;;;4.80;;
76210;SDS011;65003;49.518;11.280;2023-07-24T12:58:08;5.77;;;4.30;;
76210;SDS011;65003;49.518;11.280;2023-07-24T13:00:35;7.00;;;5.70;;
76210;SDS011;65003;49.518;11.280;2023-07-24T13:03:01;6.10;;;4.90;;
76210;SDS011;65003;49.518;11.280;2023-07-24T13:05:28;7.83;;;5.60;;
76210;SDS011;65003;49.518;11.280;2023-07-24T13:07:54;5.80;;;4.60;;
76210;SDS011;65003;49.518;11.280;2023-07-24T13:10:21;6.87;;;4.97;;
76210;SDS011;65003;49.518;11.280;2023-07-24T13:12:48;8.17;;;6.03;;
76210;SDS011;65003;49.518;11.280;2023-07-24T13:15:14;8.43;;;6.70;;
76210;SDS011;65003;49.518;11.280;2023-07-24T13:17:41;7.43;;;6.00;;
76210;SDS011;65003;49.518;11.280;2023-07-24T13:20:08;8.07;;;5.80;;
76210;SDS011;65003;49.518;11.280;2023-07-24T13:22:35;8.57;;;6.23;;
76210;SDS011;65003;49.518;11.280;2023-07-24T13:25:01;10.07;;;6.50;;
76210;SDS011;65003;49.518;11.280;2023-07-24T13:27:28;11.37;;;5.80;;
76210;SDS011;65003;49.518;11.280;2023-07-24T13:29:55;10.53;;;5.70;;
76210;SDS011;65003;49.518;11.280;2023-07-24T13:32:22;9.67;;;6.00;;
76210;SDS011;65003;49.518;11.280;2023-07-24T13:34:49;7.47;;;5.50;;
76210;SDS011;65003;49.518;11.280;2023-07-24T13:37:15;7.23;;;5.53;;
76210;SDS011;65003;49.518;11.280;2023-07-24T13:39:42;6.87;;;5.33;;
76210;SDS011;65003;49.518;11.280;2023-07-24T13:42:09;6.57;;;5.37;;
76210;SDS011;65003;49.518;11.280;2023-07-24T13:44:36;7.90;;;5.37;;
76210;SDS011;65003;49.518;11.280;2023-07-24T13:47:02;7.23;;;5.63;;
76210;SDS011;65003;49.518;11.280;2023-07-24T13:49:29;6.80;;;5.53;;
76210;SDS011;65003;49.518;11.280;2023-07-24T13:51:55;7.57;;;5.40;;
76210;SDS011;65003;49.518;11.280;2023-07-24T13:54:22;11.53;;;5.67;;
76210;SDS011;65003;49.518;11.280;2023-07-24T13:56:49;6.90;;;5.37;;
76210;SDS011;65003;49.518;11.280;2023-07-24T13:59:16;6.23;;;4.60;;
76210;SDS011;65003;49.518;11.280;2023-07-24T14:01:42;6.47;;;5.20;;
76210;SDS011;65003;49.518;11.280;2023-07-24T14:04:09;10.73;;;6.13;;
76210;SDS011;65003;49.518;11.280;2023-07-24T14:06:35;7.73;;;5.40;;
76210;SDS011;65003;49.518;11.280;2023-07-24T14:09:02;6.60;;;5.30;;
76210;SDS011;65003;49.518;11.280;2023-07-24T14:11:29;6.20;;;4.83;;
76210;SDS011;65003;49.518;11.280;2023-07-24T14:13:55;6.20;;;5.10;;
76210;SDS011;65003;49.518;11.280;2023-07-24T14:16:22;7.03;;;4.63;;
76210;SDS011;65003;49.518;11.280;2023-07-24T14:18:48;7.50;;;4.93;;
76210;SDS011;65003;49.518;11.280;2023-07-24T14:21:15;5.97;;;4.90;;
76210;SDS011;65003;49.518;11.280;2023-07-24T14:23:42;7.60;;;4.87;;
76210;SDS011;65003;49.518;11.280;2023-07-24T14:26:08;6.07;;;4.77;;